createdAt,value
2023-01-30T06:02:54.501Z,99657.88
2023-01-30T06:05:21.481Z,99644.63
2023-01-30T06:07:48.039Z,99654.25
2023-01-30T06:10:15.314Z,99667.38
2023-01-30T06:12:42.315Z,99654.97
2023-01-30T06:15:09.921Z,99660.25
2023-01-30T06:17:36.505Z,99669.00
2023-01-30T06:20:04.239Z,99671.59
2023-01-30T06:22:30.815Z,99655.78
2023-01-30T06:24:58.006Z,99656.66
2023-01-30T06:27:24.565Z,99664.53
2023-01-30T06:29:51.779Z,99676.81
2023-01-30T06:32:18.356Z,99673.19
2023-01-30T06:34:45.674Z,99660.84
2023-01-30T06:37:12.233Z,99663.56
2023-01-30T06:39:39.467Z,99679.31
2023-01-30T06:42:07.097Z,99676.69
2023-01-30T06:44:34.319Z,99690.69
2023-01-30T06:47:00.876Z,99682.75
2023-01-30T06:49:27.894Z,99683.59
2023-01-30T06:51:55.104Z,99673.03
2023-01-30T06:54:21.735Z,99673.00
2023-01-30T06:56:49.385Z,99674.72
2023-01-30T06:59:15.975Z,99668.53
2023-01-30T07:01:43.485Z,99670.28
2023-01-30T07:04:10.097Z,99674.66
2023-01-30T07:06:39.037Z,99672.00
2023-01-30T07:09:06.505Z,99679.84
2023-01-30T07:11:33.708Z,99685.97
2023-01-30T07:14:00.267Z,99678.97
2023-01-30T07:16:29.833Z,99669.31
2023-01-30T07:18:58.550Z,99667.66
2023-01-30T07:21:27.535Z,99667.56
2023-01-30T07:23:54.140Z,99671.06
2023-01-30T07:26:21.468Z,99665.78
2023-01-30T07:28:48.144Z,99663.13
2023-01-30T07:31:15.408Z,99669.25
2023-01-30T07:33:41.925Z,99668.38
2023-01-30T07:36:09.568Z,99686.81
2023-01-30T07:38:36.208Z,99688.53
2023-01-30T07:41:03.422Z,99692.16
2023-01-30T07:43:30.149Z,99690.38
2023-01-30T07:45:57.464Z,99696.56
2023-01-30T07:48:24.154Z,99715.06
2023-01-30T07:50:51.401Z,99705.38
2023-01-30T07:53:21.051Z,99699.22
2023-01-30T07:55:48.317Z,99708.06
2023-01-30T07:58:15.829Z,99716.84
2023-01-30T08:00:43.763Z,99725.69
2023-01-30T08:03:17.240Z,99723.00
2023-01-30T08:05:47.283Z,99723.84
2023-01-30T08:08:14.547Z,99716.78
2023-01-30T08:10:41.971Z,99722.97
2023-01-30T08:13:09.731Z,99731.84
2023-01-30T08:15:37.196Z,99740.66
2023-01-30T08:18:03.891Z,99736.31
2023-01-30T08:20:31.165Z,99729.19
2023-01-30T08:22:59.587Z,99723.88
2023-01-30T08:25:26.952Z,99730.88
2023-01-30T08:27:53.939Z,99719.47
2023-01-30T08:30:22.358Z,99723.94
2023-01-30T08:33:15.980Z,99713.53
2023-01-30T08:35:42.598Z,99721.28
2023-01-30T08:38:09.866Z,99715.97
2023-01-30T08:40:37.094Z,99722.06
2023-01-30T08:43:04.750Z,99724.69
2023-01-30T08:45:31.670Z,99723.75
2023-01-30T08:48:05.973Z,99730.66
2023-01-30T08:50:33.911Z,99733.34
2023-01-30T08:53:06.959Z,99746.47
2023-01-30T08:55:33.625Z,99749.97
2023-01-30T08:58:00.938Z,99730.56
2023-01-30T09:00:28.385Z,99731.34
2023-01-30T09:02:56.344Z,99733.94
2023-01-30T09:05:23.778Z,99727.72
2023-01-30T09:07:51.800Z,99732.94
2023-01-30T09:10:19.233Z,99727.81
2023-01-30T09:12:46.908Z,99725.97
2023-01-30T09:15:14.211Z,99726.91
2023-01-30T09:17:41.728Z,99737.53
2023-01-30T09:20:10.777Z,99737.53
2023-01-30T09:22:38.336Z,99735.66
2023-01-30T09:25:05.993Z,99732.94
2023-01-30T09:27:33.199Z,99733.78
2023-01-30T09:29:59.777Z,99743.50
2023-01-30T09:32:26.968Z,99750.41
2023-01-30T09:34:53.557Z,99762.63
2023-01-30T09:37:27.330Z,99746.81
2023-01-30T09:39:54.670Z,99738.88
2023-01-30T09:42:52.237Z,99737.19
2023-01-30T09:45:40.386Z,99739.13
2023-01-30T09:48:19.512Z,99754.97
2023-01-30T09:51:15.346Z,99748.84
2023-01-30T09:54:27.726Z,99742.63
2023-01-30T09:57:21.896Z,99742.63
2023-01-30T10:00:47.318Z,99754.91
2023-01-30T10:03:17.787Z,99750.41
2023-01-30T10:05:51.919Z,99751.31
2023-01-30T10:08:58.232Z,99749.34
2023-01-30T10:11:56.500Z,99750.19
2023-01-30T10:14:27.287Z,99746.66
2023-01-30T10:17:03.242Z,99751.06
2023-01-30T10:19:52.963Z,99745.66
2023-01-30T10:22:48.337Z,99752.69
2023-01-30T10:25:44.130Z,99752.69
2023-01-30T10:28:47.647Z,99746.47
2023-01-30T10:31:23.309Z,99730.53
2023-01-30T10:34:07.761Z,99737.53
2023-01-30T10:36:56.388Z,99735.66
2023-01-30T10:39:49.585Z,99738.19
2023-01-30T10:43:00.855Z,99742.50
2023-01-30T10:46:12.242Z,99741.50
2023-01-30T10:48:51.232Z,99744.97
2023-01-30T10:51:30.139Z,99751.19
2023-01-30T10:54:10.973Z,99732.59
2023-01-30T10:57:11.118Z,99734.41
2023-01-30T11:00:06.540Z,99743.25
2023-01-30T11:02:42.407Z,99738.84
2023-01-30T11:05:21.046Z,99745.91
2023-01-30T11:07:54.663Z,99753.94
2023-01-30T11:10:29.886Z,99753.34
2023-01-30T11:13:24.530Z,99744.69
2023-01-30T11:15:57.273Z,99743.75
2023-01-30T11:19:18.378Z,99742.03
2023-01-30T11:21:32.023Z,99727.91
2023-01-30T11:24:17.407Z,99737.53
2023-01-30T11:26:48.048Z,99732.22
2023-01-30T11:29:27.432Z,99734.94
2023-01-30T11:31:55.313Z,99738.56
2023-01-30T11:34:25.286Z,99728.00
2023-01-30T11:36:52.983Z,99732.41
2023-01-30T11:39:23.770Z,99713.91
2023-01-30T11:41:59.646Z,99726.94
2023-01-30T11:44:35.923Z,99695.28
2023-01-30T11:47:11.752Z,99717.31
2023-01-30T11:50:01.946Z,99706.75
2023-01-30T11:52:38.613Z,99717.31
2023-01-30T11:55:15.797Z,99722.59
2023-01-30T11:57:59.122Z,99721.69
2023-01-30T12:00:39.903Z,99706.59
2023-01-30T12:03:12.816Z,99697.69
2023-01-30T12:05:42.909Z,99694.81
2023-01-30T12:08:39.373Z,99706.31
2023-01-30T12:11:26.937Z,99700.19
2023-01-30T12:14:05.459Z,99698.22
2023-01-30T12:17:00.278Z,99709.59
2023-01-30T12:19:47.024Z,99697.22
2023-01-30T12:22:30.383Z,99699.72
2023-01-30T12:25:04.702Z,99677.63
2023-01-30T12:27:49.332Z,99700.34
2023-01-30T12:30:25.249Z,99684.31
2023-01-30T12:35:46.237Z,99710.50
2023-01-30T12:38:59.485Z,99703.56
2023-01-30T12:41:45.125Z,99707.13
2023-01-30T12:44:29.813Z,99693.16
2023-01-30T12:47:05.749Z,99709.09
2023-01-30T12:50:01.248Z,99719.75
2023-01-30T12:52:46.731Z,99707.63
2023-01-30T12:55:23.431Z,99746.66
2023-01-30T12:58:12.895Z,99771.56
2023-01-30T13:00:56.667Z,99810.75
2023-01-30T13:03:44.520Z,99807.84
2023-01-30T13:06:48.678Z,99779.31
2023-01-30T13:10:05.213Z,99811.19
2023-01-30T13:13:15.594Z,99782.47
2023-01-30T13:15:56.347Z,99789.00
2023-01-30T13:18:37.680Z,99785.63
2023-01-30T13:21:28.926Z,99796.88
2023-01-30T13:24:12.141Z,99807.22
2023-01-30T13:26:43.033Z,99800.03
2023-01-30T13:29:33.246Z,99785.97
2023-01-30T13:32:03.752Z,99780.56
2023-01-30T13:34:37.800Z,99783.97
2023-01-30T13:37:10.987Z,99785.66
2023-01-30T13:39:57.515Z,99794.34
2023-01-30T13:42:53.174Z,99805.00
2023-01-30T13:45:31.518Z,99821.69
2023-01-30T13:48:09.060Z,99849.16
2023-01-30T13:51:07.979Z,99827.31
2023-01-30T13:53:54.629Z,99839.78
2023-01-30T13:56:43.782Z,99856.47
2023-01-30T13:59:26.020Z,99865.34
2023-01-30T14:02:07.040Z,99854.81
2023-01-30T14:04:40.669Z,99862.72
2023-01-30T14:07:14.571Z,99856.59
2023-01-30T14:09:51.008Z,99865.41
2023-01-30T14:12:27.599Z,99866.28
2023-01-30T14:15:03.216Z,99877.69
2023-01-30T14:17:30.831Z,99868.00
2023-01-30T14:20:07.122Z,99865.28
2023-01-30T14:22:49.119Z,99879.13
2023-01-30T14:25:25.794Z,99885.97
2023-01-30T14:28:15.309Z,99897.34
2023-01-30T14:30:44.791Z,99899.94
2023-01-30T14:33:20.729Z,99906.06
2023-01-30T14:35:49.028Z,99913.91
2023-01-30T14:38:22.037Z,99911.34
2023-01-30T14:41:26.264Z,99930.66
2023-01-30T14:43:54.264Z,99940.34
2023-01-30T14:46:21.472Z,99931.59
2023-01-30T14:48:51.988Z,99949.19
2023-01-30T14:51:41.033Z,99942.09
2023-01-30T14:54:14.657Z,99952.63
2023-01-30T14:56:54.709Z,99959.59
2023-01-30T14:59:24.251Z,99968.44
2023-01-30T15:02:05.865Z,99961.38
2023-01-30T15:05:05.911Z,99966.66
2023-01-30T15:08:16.815Z,99980.72
2023-01-30T15:11:13.907Z,99996.53
2023-01-30T15:14:01.722Z,100004.44
2023-01-30T15:16:38.365Z,100012.31
2023-01-30T15:19:30.366Z,100016.66
2023-01-30T15:22:13.668Z,100019.28
2023-01-30T15:24:59.271Z,100035.06
2023-01-30T15:27:50.888Z,100037.72
2023-01-30T15:30:43.965Z,100044.69
2023-01-30T15:33:29.227Z,100059.72
2023-01-30T15:35:58.133Z,100058.00
2023-01-30T15:38:30.938Z,100050.97
2023-01-30T15:41:03.555Z,100052.72
2023-01-30T15:44:01.586Z,100065.00
2023-01-30T15:46:38.668Z,100067.69
2023-01-30T15:49:28.176Z,100077.41
2023-01-30T15:52:00.601Z,100083.59
2023-01-30T15:54:28.899Z,100082.75
2023-01-30T15:56:59.009Z,100086.34
2023-01-30T15:59:26.853Z,100095.13
2023-01-30T16:02:07.021Z,100097.81
2023-01-30T16:04:35.688Z,100105.72
2023-01-30T16:07:18.161Z,100116.34
2023-01-30T16:10:07.168Z,100130.44
2023-01-30T16:12:36.948Z,100130.44
2023-01-30T16:15:19.253Z,100128.78
2023-01-30T16:18:06.428Z,100131.41
2023-01-30T16:21:01.647Z,100141.09
2023-01-30T16:23:45.864Z,100147.25
2023-01-30T16:26:18.231Z,100151.69
2023-01-30T16:28:53.313Z,100152.56
2023-01-30T16:31:21.520Z,100145.50
2023-01-30T16:33:57.960Z,100165.75
2023-01-30T16:36:25.193Z,100171.00
2023-01-30T16:38:54.719Z,100171.00
2023-01-30T16:41:30.727Z,100179.75
2023-01-30T16:44:16.949Z,100178.84
2023-01-30T16:46:48.687Z,100189.38
2023-01-30T16:49:45.213Z,100193.75
2023-01-30T16:52:18.885Z,100195.50
2023-01-30T16:54:50.863Z,100193.75
2023-01-30T16:57:45.603Z,100198.09
2023-01-30T17:00:21.784Z,100203.31
2023-01-30T17:03:05.567Z,100208.56
2023-01-30T17:05:49.776Z,100212.94
2023-01-30T17:08:46.194Z,100216.41
2023-01-30T17:11:38.318Z,100225.19
2023-01-30T17:14:26.654Z,100223.47
2023-01-30T17:17:10.370Z,100226.97
2023-01-30T17:19:39.749Z,100232.25
2023-01-30T17:22:18.226Z,100235.75
2023-01-30T17:25:06.782Z,100233.97
2023-01-30T17:27:35.189Z,100237.50
2023-01-30T17:30:19.273Z,100238.38
2023-01-30T17:32:50.907Z,100250.69
2023-01-30T17:35:20.240Z,100259.47
2023-01-30T17:37:59.572Z,100269.97
2023-01-30T17:40:38.131Z,100267.34
2023-01-30T17:43:05.621Z,100263.78
2023-01-30T17:45:33.596Z,100275.22
2023-01-30T17:48:00.658Z,100294.53
2023-01-30T17:50:29.051Z,100295.44
2023-01-30T17:52:58.873Z,100311.28
2023-01-30T17:55:28.203Z,100319.19
2023-01-30T17:57:56.801Z,100315.75
2023-01-30T18:00:24.961Z,100317.56
2023-01-30T18:02:53.223Z,100315.84
2023-01-30T18:05:23.040Z,100321.19
2023-01-30T18:07:50.272Z,100317.69
2023-01-30T18:10:20.189Z,100327.44
2023-01-30T18:12:47.568Z,100336.22
2023-01-30T18:15:16.887Z,100338.88
2023-01-30T18:17:49.220Z,100346.84
2023-01-30T18:20:20.465Z,100351.25
2023-01-30T18:22:48.135Z,100354.78
2023-01-30T18:25:16.628Z,100360.09
2023-01-30T18:27:48.218Z,100359.28
2023-01-30T18:30:17.939Z,100363.66
2023-01-30T18:32:53.263Z,100363.69
2023-01-30T18:35:23.503Z,100367.22
2023-01-30T18:37:51.283Z,100371.63
2023-01-30T18:40:20.977Z,100378.72
2023-01-30T18:42:48.414Z,100373.44
2023-01-30T18:45:16.635Z,100376.97
2023-01-30T18:47:43.670Z,100373.44
2023-01-30T18:50:12.407Z,100378.72
2023-01-30T18:52:40.242Z,100377.88
2023-01-30T18:55:08.984Z,100370.88
2023-01-30T18:57:36.210Z,100380.56
2023-01-30T19:00:04.043Z,100384.00
2023-01-30T19:02:30.888Z,100396.31
2023-01-30T19:04:58.199Z,100404.19
2023-01-30T19:07:28.408Z,100416.47
2023-01-30T19:09:56.810Z,100413.88
2023-01-30T19:12:42.417Z,100422.66
2023-01-30T19:15:10.615Z,100425.28
2023-01-30T19:17:37.564Z,100426.16
2023-01-30T19:20:11.343Z,100429.66
2023-01-30T19:22:39.562Z,100440.22
2023-01-30T19:25:07.716Z,100438.47
2023-01-30T19:27:37.126Z,100444.63
2023-01-30T19:30:04.542Z,100456.03
2023-01-30T19:32:31.273Z,100456.03
2023-01-30T19:34:58.488Z,100451.66
2023-01-30T19:37:25.026Z,100452.50
2023-01-30T19:39:52.676Z,100454.25
2023-01-30T19:42:19.743Z,100459.56
2023-01-30T19:44:47.420Z,100457.78
2023-01-30T19:47:14.449Z,100449.03
2023-01-30T19:49:42.547Z,100461.31
2023-01-30T19:52:09.247Z,100459.50
2023-01-30T19:54:39.857Z,100461.25
2023-01-30T19:57:09.896Z,100470.06
2023-01-30T19:59:39.170Z,100478.84
2023-01-30T20:02:07.345Z,100471.81
2023-01-30T20:04:34.709Z,100478.84
2023-01-30T20:07:01.452Z,100491.13
2023-01-30T20:09:28.397Z,100487.63
2023-01-30T20:11:55.196Z,100492.94
2023-01-30T20:14:22.565Z,100496.47
2023-01-30T20:16:49.255Z,100502.59
2023-01-30T20:19:17.327Z,100506.16
2023-01-30T20:21:45.177Z,100514.00
2023-01-30T20:24:14.712Z,100514.03
2023-01-30T20:26:41.879Z,100524.56
2023-01-30T20:29:12.959Z,100521.97
2023-01-30T20:31:40.201Z,100531.63
2023-01-30T20:34:11.724Z,100535.97
2023-01-30T20:36:38.455Z,100537.75
2023-01-30T20:39:07.725Z,100543.88
2023-01-30T20:41:37.487Z,100540.41
2023-01-30T20:44:08.269Z,100549.16
2023-01-30T20:49:49.369Z,100540.47
2023-01-30T20:52:19.070Z,100550.94
2023-01-30T20:54:46.902Z,100553.63
2023-01-30T20:57:14.204Z,100555.38
2023-01-30T20:59:42.873Z,100557.16
2023-01-30T21:02:16.259Z,100568.59
2023-01-30T21:04:54.354Z,100565.94
2023-01-30T21:07:21.359Z,100572.09
2023-01-30T21:09:48.748Z,100559.78
2023-01-30T21:12:18.699Z,100568.59
2023-01-30T21:15:07.449Z,100577.41
